LFSY weather

Public forecast

Using degrees Celsius for public forecast. Weather courtesy of forecast.io.

Closest aviation weather report (METAR) to Cessey Baigneux les Juifs Airfield

Closest report is Dijon-Bourgogne Airport, 28.1 nm (52.0 km) SE. Retrieved 2020/08/15 07:30 UTC (18 minutes ago):

LFSD 150730Z AUTO VRB01KT CAVOK 22/18 Q1016

Closest aviation forecast (TAF) to Cessey Baigneux les Juifs Airfield

Forecast is more than 12 hours old.

Closest forecast is Dijon-Bourgogne Airport, 28.1 nm (52.0 km) SE. Retrieved 2015/06/01 00:11 UTC (5 years ago):

TAF LFSD 010600Z 0100/0124 CNL